createdAt,value
2023-08-12T00:00:12.958Z,2.22
2023-08-12T00:02:45.128Z,2.80
2023-08-12T00:05:14.628Z,2.80
2023-08-12T00:07:43.511Z,2.67
2023-08-12T00:10:14.259Z,3.08
2023-08-12T00:12:42.834Z,2.83
2023-08-12T00:15:11.700Z,3.10
2023-08-12T00:17:42.517Z,2.70
2023-08-12T00:20:12.368Z,2.95
2023-08-12T00:22:41.716Z,3.20
2023-08-12T00:25:10.497Z,2.78
2023-08-12T00:27:40.106Z,2.83
2023-08-12T00:30:08.925Z,3.20
2023-08-12T00:32:40.525Z,3.50
2023-08-12T00:35:09.286Z,3.25
2023-08-12T00:37:37.740Z,2.70
2023-08-12T00:40:07.722Z,3.53
2023-08-12T00:42:37.310Z,3.53
2023-08-12T00:45:08.826Z,3.13
2023-08-12T00:47:37.294Z,3.72
2023-08-12T00:50:05.964Z,3.83
2023-08-12T00:52:34.300Z,4.15
2023-08-12T00:55:02.827Z,4.03
2023-08-12T00:57:31.210Z,3.83
2023-08-12T00:59:59.570Z,4.05
2023-08-12T01:02:29.940Z,3.65
2023-08-12T01:04:58.351Z,4.22
2023-08-12T01:07:26.667Z,4.13
2023-08-12T01:09:55.402Z,4.30
2023-08-12T01:12:27.230Z,3.95
2023-08-12T01:14:59.043Z,4.03
2023-08-12T01:17:28.890Z,3.95
2023-08-12T01:19:59.535Z,4.00
2023-08-12T01:22:28.670Z,3.63
2023-08-12T01:24:58.443Z,3.95
2023-08-12T01:27:26.906Z,4.28
2023-08-12T01:29:55.305Z,4.32
2023-08-12T01:32:32.061Z,4.07
2023-08-12T01:35:02.807Z,4.50
2023-08-12T01:37:31.649Z,4.70
2023-08-12T01:40:03.943Z,4.53
2023-08-12T01:42:33.150Z,4.07
2023-08-12T01:45:02.366Z,4.30
2023-08-12T01:47:30.896Z,3.60
2023-08-12T01:49:59.471Z,4.47
2023-08-12T01:52:27.840Z,4.13
2023-08-12T01:54:56.814Z,4.00
2023-08-12T01:57:26.685Z,3.90
2023-08-12T01:59:55.069Z,4.40
2023-08-12T02:02:23.913Z,3.90
2023-08-12T02:04:52.371Z,3.70
2023-08-12T02:07:20.674Z,4.45
2023-08-12T02:09:49.122Z,4.15
2023-08-12T02:12:17.494Z,3.72
2023-08-12T02:14:47.697Z,4.30
2023-08-12T02:17:16.116Z,4.50
2023-08-12T02:19:44.578Z,4.60
2023-08-12T02:22:12.891Z,4.18
2023-08-12T02:24:41.332Z,4.50
2023-08-12T02:27:10.236Z,4.38
2023-08-12T02:29:38.867Z,4.55
2023-08-12T02:32:08.828Z,5.28
2023-08-12T02:34:37.520Z,4.07
2023-08-12T02:37:05.878Z,5.20
2023-08-12T02:39:34.196Z,4.80
2023-08-12T02:42:02.748Z,4.60
2023-08-12T02:44:31.194Z,4.40
2023-08-12T02:46:59.503Z,5.15
2023-08-12T02:49:29.247Z,5.00
2023-08-12T02:51:57.602Z,5.28
2023-08-12T02:54:25.903Z,4.88
2023-08-12T02:56:54.389Z,5.18
2023-08-12T02:59:22.662Z,5.75
2023-08-12T03:01:51.002Z,5.53
2023-08-12T03:04:19.475Z,5.85
2023-08-12T03:06:49.269Z,5.65
2023-08-12T03:09:19.454Z,5.20
2023-08-12T03:11:47.868Z,6.28
2023-08-12T03:14:16.713Z,5.90
2023-08-12T03:16:45.031Z,5.63
2023-08-12T03:19:13.631Z,5.47
2023-08-12T03:21:42.406Z,5.60
2023-08-12T03:24:12.105Z,5.53
2023-08-12T03:26:40.560Z,5.65
2023-08-12T03:29:08.967Z,5.40
2023-08-12T03:31:40.667Z,5.93
2023-08-12T03:34:09.783Z,5.55
2023-08-12T03:36:38.685Z,6.35
2023-08-12T03:39:07.729Z,5.82
2023-08-12T03:41:37.788Z,5.75
2023-08-12T03:44:08.056Z,5.50
2023-08-12T03:46:36.705Z,5.13
2023-08-12T03:49:05.736Z,5.75
2023-08-12T03:51:34.058Z,5.50
2023-08-12T03:54:02.878Z,5.32
2023-08-12T03:56:31.231Z,5.25
2023-08-12T03:59:02.487Z,6.03
2023-08-12T04:01:31.293Z,5.68
2023-08-12T04:03:59.701Z,5.03
2023-08-12T04:06:28.230Z,5.93
2023-08-12T04:08:56.683Z,6.00
2023-08-12T04:11:24.983Z,5.30
2023-08-12T04:13:53.328Z,5.45
2023-08-12T04:16:24.316Z,6.15
2023-08-12T04:18:52.736Z,5.30
2023-08-12T04:21:21.474Z,6.07
2023-08-12T04:23:49.995Z,5.88
2023-08-12T04:26:19.188Z,5.85
2023-08-12T04:28:47.699Z,6.25
2023-08-12T04:31:16.529Z,5.85
2023-08-12T04:33:46.577Z,6.40
2023-08-12T04:36:16.528Z,5.57
2023-08-12T04:38:44.984Z,5.95
2023-08-12T04:41:14.072Z,5.47
2023-08-12T04:43:42.445Z,6.15
2023-08-12T04:46:10.864Z,6.32
2023-08-12T04:48:39.545Z,5.68
2023-08-12T04:51:09.464Z,5.95
2023-08-12T04:53:37.914Z,5.35
2023-08-12T04:56:08.327Z,5.90
2023-08-12T04:58:37.088Z,5.30
2023-08-12T05:01:06.548Z,6.03
2023-08-12T05:03:34.895Z,5.65
2023-08-12T05:06:03.486Z,5.57
2023-08-12T05:08:34.074Z,5.43
2023-08-12T05:11:02.577Z,6.43
2023-08-12T05:13:31.764Z,5.63
2023-08-12T05:16:00.287Z,5.30
2023-08-12T05:18:30.250Z,5.63
2023-08-12T05:20:58.734Z,5.68
2023-08-12T05:23:27.670Z,6.18
2023-08-12T05:25:58.050Z,5.15
2023-08-12T05:28:26.336Z,5.30
2023-08-12T05:30:56.042Z,5.43
2023-08-12T05:33:25.317Z,4.88
2023-08-12T05:35:53.768Z,5.15
2023-08-12T05:38:22.255Z,6.10
2023-08-12T05:40:50.662Z,5.28
2023-08-12T05:43:20.342Z,6.32
2023-08-12T05:45:48.869Z,5.57
2023-08-12T05:48:17.262Z,5.00
2023-08-12T05:50:46.328Z,5.07
2023-08-12T05:53:14.784Z,5.65
2023-08-12T05:55:43.504Z,6.32
2023-08-12T05:58:11.798Z,4.53
2023-08-12T06:00:41.509Z,3.50
2023-08-12T06:03:10.027Z,3.83
2023-08-12T06:05:38.680Z,3.00
2023-08-12T06:08:08.037Z,2.30
2023-08-12T06:10:38.944Z,1.95
2023-08-12T06:13:09.279Z,1.50
2023-08-12T06:15:37.902Z,1.60
2023-08-12T06:18:08.088Z,1.20
2023-08-12T06:20:36.836Z,1.80
2023-08-12T06:23:05.408Z,1.60
2023-08-12T06:25:33.886Z,1.70
2023-08-12T06:28:02.624Z,1.45
2023-08-12T06:30:31.086Z,1.50
2023-08-12T06:32:59.463Z,1.60
2023-08-12T06:35:29.261Z,1.50
2023-08-12T06:37:57.622Z,1.35
2023-08-12T06:40:25.880Z,0.98
2023-08-12T06:42:54.330Z,1.20
2023-08-12T06:45:22.721Z,1.27
2023-08-12T06:47:51.088Z,1.50
2023-08-12T06:50:19.653Z,1.20
2023-08-12T06:52:49.477Z,1.20
2023-08-12T06:55:17.927Z,1.40
2023-08-12T06:57:46.312Z,1.33
2023-08-12T07:00:15.100Z,1.20
2023-08-12T07:02:43.957Z,1.08
2023-08-12T07:05:12.467Z,1.02
2023-08-12T07:07:40.809Z,0.98
2023-08-12T07:10:13.563Z,1.52
2023-08-12T07:12:42.048Z,1.20
2023-08-12T07:15:12.009Z,1.15
2023-08-12T07:17:43.254Z,1.20
2023-08-12T07:20:12.087Z,0.90
2023-08-12T07:22:40.489Z,1.00
2023-08-12T07:25:09.051Z,0.70
2023-08-12T07:27:38.790Z,1.00
2023-08-12T07:30:08.916Z,0.90
2023-08-12T07:32:39.448Z,0.90
2023-08-12T07:35:08.812Z,0.80
2023-08-12T07:37:37.664Z,1.05
2023-08-12T07:40:06.677Z,0.93
2023-08-12T07:42:35.117Z,0.90
2023-08-12T07:45:04.964Z,1.00
2023-08-12T07:47:33.335Z,1.10
2023-08-12T07:50:01.740Z,1.27
2023-08-12T07:52:30.167Z,0.85
2023-08-12T07:54:58.798Z,1.50
2023-08-12T07:57:27.398Z,0.95
2023-08-12T07:59:55.961Z,1.52
2023-08-12T08:02:25.840Z,1.23
2023-08-12T08:04:54.380Z,1.00
2023-08-12T08:07:22.814Z,1.23
2023-08-12T08:09:51.261Z,1.10
2023-08-12T08:12:19.586Z,1.48
2023-08-12T08:14:48.079Z,1.30
2023-08-12T08:17:16.600Z,1.02
2023-08-12T08:19:46.252Z,1.20
2023-08-12T08:22:15.205Z,1.40
2023-08-12T08:24:43.692Z,1.10
2023-08-12T08:27:12.217Z,1.15
2023-08-12T08:29:40.627Z,1.38
2023-08-12T08:32:10.082Z,1.30
2023-08-12T08:34:38.946Z,1.08
2023-08-12T08:37:08.821Z,0.98
2023-08-12T08:39:37.534Z,1.50
2023-08-12T08:42:08.584Z,1.23
2023-08-12T08:44:38.896Z,1.10
2023-08-12T08:47:09.816Z,0.98
2023-08-12T08:49:38.796Z,1.10
2023-08-12T08:52:08.775Z,1.40
2023-08-12T08:54:37.357Z,1.02
2023-08-12T08:57:07.959Z,1.45
2023-08-12T08:59:40.031Z,1.13
2023-08-12T09:02:10.345Z,1.05
2023-08-12T09:04:39.158Z,0.73
2023-08-12T09:07:09.162Z,1.17
2023-08-12T09:09:38.755Z,1.20
2023-08-12T09:12:08.415Z,0.98
2023-08-12T09:14:37.353Z,1.08
2023-08-12T09:17:05.845Z,1.20
2023-08-12T09:19:34.124Z,1.00
2023-08-12T09:22:02.477Z,1.50
2023-08-12T09:24:32.359Z,0.95
2023-08-12T09:27:00.899Z,0.90
2023-08-12T09:29:32.100Z,1.50
2023-08-12T09:32:09.483Z,1.40
2023-08-12T09:34:38.346Z,1.20
2023-08-12T09:37:08.811Z,1.00
2023-08-12T09:39:38.812Z,1.38
2023-08-12T09:42:07.876Z,1.30
2023-08-12T09:44:37.763Z,1.17
2023-08-12T09:47:06.621Z,1.15
2023-08-12T09:49:35.131Z,1.38
2023-08-12T09:52:03.651Z,1.23
2023-08-12T09:54:34.067Z,1.20
2023-08-12T09:57:04.873Z,0.93
2023-08-12T09:59:35.438Z,0.98
2023-08-12T10:02:05.159Z,0.80
2023-08-12T10:04:36.798Z,1.30
2023-08-12T10:07:05.483Z,1.27
2023-08-12T10:09:34.640Z,0.90
2023-08-12T10:12:04.715Z,1.13
2023-08-12T10:14:33.058Z,1.00
2023-08-12T10:17:05.607Z,1.00
2023-08-12T10:19:35.211Z,0.73
2023-08-12T10:22:05.111Z,0.75
2023-08-12T10:24:34.364Z,1.50
2023-08-12T10:27:04.180Z,1.13
2023-08-12T10:29:32.632Z,1.48
2023-08-12T10:32:01.615Z,0.70
2023-08-12T10:34:30.164Z,1.00
2023-08-12T10:37:03.330Z,0.82
2023-08-12T10:39:34.421Z,0.95
2023-08-12T10:42:04.318Z,1.13
2023-08-12T10:44:41.615Z,1.20
2023-08-12T10:47:11.338Z,1.48
2023-08-12T10:49:40.994Z,1.52
2023-08-12T10:52:22.203Z,1.15
2023-08-12T10:54:50.656Z,1.50
2023-08-12T10:57:20.278Z,1.20
2023-08-12T10:59:53.654Z,1.42
2023-08-12T11:02:22.889Z,1.30
2023-08-12T11:04:52.155Z,1.15
2023-08-12T11:07:21.065Z,1.63
2023-08-12T11:09:54.285Z,1.55
2023-08-12T11:12:31.746Z,1.35
2023-08-12T11:15:01.482Z,1.17
2023-08-12T11:17:35.668Z,1.17
2023-08-12T11:20:06.353Z,1.27
2023-08-12T11:22:37.860Z,1.25
2023-08-12T11:25:09.071Z,1.35
2023-08-12T11:27:42.448Z,1.40
2023-08-12T11:30:11.704Z,1.48
2023-08-12T11:32:40.723Z,1.30
2023-08-12T11:35:10.322Z,1.08
2023-08-12T11:37:39.002Z,1.50
2023-08-12T11:40:09.957Z,1.05
2023-08-12T11:42:38.621Z,1.00
2023-08-12T11:45:09.197Z,1.27
2023-08-12T11:47:37.850Z,1.38
2023-08-12T11:50:06.743Z,1.15
2023-08-12T11:52:35.596Z,1.27
2023-08-12T11:55:04.165Z,1.23
2023-08-12T11:57:35.345Z,1.65
2023-08-12T12:00:06.645Z,1.05
2023-08-12T12:02:43.177Z,1.42
2023-08-12T12:05:13.009Z,1.83
2023-08-12T12:07:41.620Z,1.33
2023-08-12T12:10:10.414Z,1.35
2023-08-12T12:12:39.183Z,2.05
2023-08-12T12:15:08.097Z,1.30
2023-08-12T12:17:41.600Z,1.30
2023-08-12T12:20:12.807Z,1.50
2023-08-12T12:22:41.085Z,1.25
2023-08-12T12:25:10.381Z,1.17
2023-08-12T12:27:39.929Z,1.38
2023-08-12T12:30:08.735Z,1.40
2023-08-12T12:32:37.468Z,1.92
2023-08-12T12:35:08.446Z,1.30
2023-08-12T12:37:38.820Z,1.42
2023-08-12T12:40:08.305Z,1.30
2023-08-12T12:42:36.761Z,1.30
2023-08-12T12:45:05.253Z,1.08
2023-08-12T12:47:33.590Z,1.10
2023-08-12T12:50:02.091Z,2.05
2023-08-12T12:52:30.390Z,1.25
2023-08-12T12:55:01.122Z,1.80
2023-08-12T12:57:29.414Z,1.25
2023-08-12T12:59:57.722Z,1.15
2023-08-12T13:02:26.623Z,1.55
2023-08-12T13:05:04.434Z,1.30
2023-08-12T13:07:33.065Z,1.63
2023-08-12T13:10:02.751Z,1.27
2023-08-12T13:12:31.151Z,1.50
2023-08-12T13:15:01.646Z,1.60
2023-08-12T13:17:30.662Z,1.40
2023-08-12T13:19:59.013Z,1.60
2023-08-12T13:22:27.482Z,1.63
2023-08-12T13:24:55.836Z,1.40
2023-08-12T13:27:26.096Z,2.03
2023-08-12T13:29:54.428Z,1.85
2023-08-12T13:32:22.715Z,2.25
2023-08-12T13:34:51.072Z,1.60
2023-08-12T13:37:19.523Z,1.73
2023-08-12T13:39:47.920Z,1.67
2023-08-12T13:42:16.271Z,1.70
2023-08-12T13:44:46.200Z,1.90
2023-08-12T13:47:15.064Z,1.92
2023-08-12T13:49:43.321Z,2.03
2023-08-12T13:52:11.895Z,1.92
2023-08-12T13:54:40.481Z,1.40
2023-08-12T13:57:08.790Z,1.15
2023-08-12T13:59:37.645Z,1.90
2023-08-12T14:02:07.734Z,1.50
2023-08-12T14:04:38.148Z,1.63
2023-08-12T14:07:06.813Z,1.25
2023-08-12T14:09:36.544Z,1.63
2023-08-12T14:12:04.932Z,1.80
2023-08-12T14:14:33.658Z,1.10
2023-08-12T14:17:02.255Z,1.40
2023-08-12T14:19:32.649Z,1.52
2023-08-12T14:22:01.054Z,1.75
2023-08-12T14:24:29.343Z,1.65
2023-08-12T14:26:57.625Z,1.38
2023-08-12T14:29:26.028Z,1.90
2023-08-12T14:31:55.016Z,1.60
2023-08-12T14:34:23.336Z,1.17
2023-08-12T14:36:53.378Z,1.70
2023-08-12T14:39:22.920Z,2.08
2023-08-12T14:41:51.193Z,2.00
2023-08-12T14:44:19.693Z,1.95
2023-08-12T14:46:48.067Z,2.38
2023-08-12T14:49:16.614Z,1.50
2023-08-12T14:51:44.916Z,1.30
2023-08-12T14:54:14.542Z,1.80
2023-08-12T14:56:43.001Z,1.60
2023-08-12T14:59:11.589Z,1.85
2023-08-12T15:01:39.898Z,1.77
2023-08-12T15:04:08.694Z,1.33
2023-08-12T15:06:37.655Z,1.40
2023-08-12T15:09:06.086Z,1.88
2023-08-12T15:11:36.469Z,1.60
2023-08-12T15:14:04.975Z,1.83
2023-08-12T15:16:34.478Z,1.70
2023-08-12T15:19:04.525Z,1.45
2023-08-12T15:21:32.893Z,1.60
2023-08-12T15:24:01.163Z,1.92
2023-08-12T15:26:31.041Z,1.17
2023-08-12T15:29:02.528Z,1.60
2023-08-12T15:31:31.397Z,1.95
2023-08-12T15:33:59.696Z,1.63
2023-08-12T15:36:28.061Z,1.67
2023-08-12T15:38:56.691Z,1.85
2023-08-12T15:41:25.178Z,1.55
2023-08-12T15:43:53.694Z,1.77
2023-08-12T15:46:25.993Z,1.40
2023-08-12T15:48:54.603Z,1.70
2023-08-12T15:51:22.998Z,1.40
2023-08-12T15:53:51.345Z,1.27
2023-08-12T15:56:19.691Z,1.50
2023-08-12T15:58:47.965Z,1.50
2023-08-12T16:01:16.256Z,1.20
2023-08-12T16:03:46.506Z,1.48
2023-08-12T16:06:14.843Z,1.30
2023-08-12T16:08:43.687Z,1.35
2023-08-12T16:11:13.283Z,1.13
2023-08-12T16:13:41.722Z,1.20
2023-08-12T16:16:10.077Z,1.40
2023-08-12T16:18:38.722Z,1.63
2023-08-12T16:21:08.570Z,1.50
2023-08-12T16:23:46.253Z,1.35
2023-08-12T16:26:14.749Z,2.03
2023-08-12T16:28:43.152Z,1.35
2023-08-12T16:31:11.495Z,1.40
2023-08-12T16:33:42.293Z,1.33
2023-08-12T16:36:12.005Z,1.55
2023-08-12T16:38:40.412Z,1.08
2023-08-12T16:41:08.717Z,1.60
2023-08-12T16:43:37.074Z,1.30
2023-08-12T16:46:05.517Z,1.30
2023-08-12T16:48:33.873Z,1.38
2023-08-12T16:51:02.688Z,1.20
2023-08-12T16:53:32.398Z,1.35
2023-08-12T16:56:00.709Z,1.63
2023-08-12T16:58:28.997Z,1.27
2023-08-12T17:00:57.376Z,1.42
2023-08-12T17:03:25.774Z,1.23
2023-08-12T17:05:54.198Z,2.15
2023-08-12T17:08:22.561Z,1.67
2023-08-12T17:10:52.412Z,2.15
2023-08-12T17:13:21.679Z,1.55
2023-08-12T17:15:53.318Z,1.95
2023-08-12T17:18:22.504Z,2.20
2023-08-12T17:21:04.960Z,1.33
2023-08-12T17:23:33.870Z,1.75
2023-08-12T17:26:03.743Z,1.33
2023-08-12T17:28:32.008Z,1.17
2023-08-12T17:31:00.380Z,1.50
2023-08-12T17:33:28.940Z,1.20
2023-08-12T17:35:57.500Z,1.80
2023-08-12T17:38:25.844Z,1.45
2023-08-12T17:40:54.381Z,1.92
2023-08-12T17:43:24.126Z,1.90
2023-08-12T17:45:52.430Z,1.65
2023-08-12T17:48:20.795Z,2.40
2023-08-12T17:50:49.327Z,1.52
2023-08-12T17:53:17.806Z,1.67
2023-08-12T17:55:46.357Z,1.70
2023-08-12T17:58:17.164Z,2.50
2023-08-12T18:00:47.257Z,2.13
2023-08-12T18:03:15.916Z,1.58
2023-08-12T18:05:44.343Z,2.13
2023-08-12T18:08:13.090Z,2.17
2023-08-12T18:10:41.762Z,2.50
2023-08-12T18:13:10.237Z,1.98
2023-08-12T18:15:38.748Z,1.60
2023-08-12T18:18:09.010Z,1.50
2023-08-12T18:20:39.584Z,1.80
2023-08-12T18:23:08.489Z,1.92
2023-08-12T18:25:37.095Z,1.67
2023-08-12T18:28:05.499Z,1.52
2023-08-12T18:30:34.020Z,1.77
2023-08-12T18:33:04.279Z,2.22
2023-08-12T18:35:34.369Z,1.80
2023-08-12T18:38:02.698Z,1.48
2023-08-12T18:40:33.211Z,1.40
2023-08-12T18:43:01.846Z,1.08
2023-08-12T18:45:30.586Z,1.33
2023-08-12T18:47:58.978Z,1.55
2023-08-12T18:50:27.384Z,1.00
2023-08-12T18:52:57.553Z,1.10
2023-08-12T18:55:26.992Z,1.38
2023-08-12T18:57:55.268Z,1.38
2023-08-12T19:00:23.722Z,1.45
2023-08-12T19:02:52.637Z,1.50
2023-08-12T19:05:21.101Z,1.70
2023-08-12T19:07:49.384Z,1.60
2023-08-12T19:10:19.149Z,1.50
2023-08-12T19:12:47.505Z,1.40
2023-08-12T19:15:15.814Z,1.77
2023-08-12T19:17:44.555Z,1.75
2023-08-12T19:20:13.255Z,1.35
2023-08-12T19:22:41.661Z,1.60
2023-08-12T19:25:10.546Z,1.83
2023-08-12T19:27:40.188Z,1.35
2023-08-12T19:30:12.647Z,1.58
2023-08-12T19:32:50.500Z,2.00
2023-08-12T19:35:19.270Z,1.80
2023-08-12T19:37:49.712Z,1.85
2023-08-12T19:40:19.244Z,1.35
2023-08-12T19:42:49.018Z,1.65
2023-08-12T19:45:17.427Z,1.55
2023-08-12T19:47:46.317Z,1.38
2023-08-12T19:50:14.957Z,1.67
2023-08-12T19:52:43.322Z,1.90
2023-08-12T19:55:12.248Z,1.92
2023-08-12T19:57:40.922Z,2.00
2023-08-12T20:00:11.854Z,1.52
2023-08-12T20:02:42.699Z,1.77
2023-08-12T20:05:15.597Z,1.40
2023-08-12T20:07:44.253Z,1.20
2023-08-12T20:10:12.726Z,1.70
2023-08-12T20:12:41.047Z,1.90
2023-08-12T20:15:13.718Z,1.88
2023-08-12T20:17:42.507Z,2.13
2023-08-12T20:20:13.333Z,1.65
2023-08-12T20:22:54.446Z,2.08
2023-08-12T20:25:31.491Z,1.90
2023-08-12T20:28:00.178Z,2.20
2023-08-12T20:30:29.999Z,1.63
2023-08-12T20:32:58.365Z,1.23
2023-08-12T20:35:26.881Z,1.38
2023-08-12T20:37:55.284Z,1.98
2023-08-12T20:40:23.689Z,1.50
2023-08-12T20:42:52.061Z,1.48
2023-08-12T20:45:20.358Z,1.75
2023-08-12T20:47:50.121Z,1.38
2023-08-12T20:50:18.490Z,1.45
2023-08-12T20:52:46.994Z,1.67
2023-08-12T20:55:15.431Z,1.85
2023-08-12T20:57:43.758Z,1.80
2023-08-12T21:00:13.637Z,2.10
2023-08-12T21:02:45.301Z,2.33
2023-08-12T21:05:15.346Z,1.83
2023-08-12T21:07:43.776Z,1.30
2023-08-12T21:10:12.597Z,1.77
2023-08-12T21:12:41.071Z,1.77
2023-08-12T21:15:10.053Z,1.42
2023-08-12T21:17:38.872Z,2.30
2023-08-12T21:20:08.352Z,1.58
2023-08-12T21:22:38.245Z,1.88
2023-08-12T21:25:10.050Z,1.88
2023-08-12T21:27:38.804Z,1.83
2023-08-12T21:30:07.996Z,1.98
2023-08-12T21:32:36.768Z,2.45
2023-08-12T21:35:06.639Z,1.42
2023-08-12T21:37:35.020Z,1.70
2023-08-12T21:40:05.114Z,1.77
2023-08-12T21:42:33.585Z,1.50
2023-08-12T21:45:01.956Z,1.08
2023-08-12T21:47:30.400Z,1.90
2023-08-12T21:49:59.602Z,1.48
2023-08-12T21:52:27.847Z,1.45
2023-08-12T21:54:56.252Z,2.10
2023-08-12T21:57:26.013Z,1.77
2023-08-12T21:59:54.387Z,1.55
2023-08-12T22:02:26.702Z,2.00
2023-08-12T22:04:55.457Z,1.75
2023-08-12T22:07:24.023Z,1.20
2023-08-12T22:09:52.696Z,1.90
2023-08-12T22:12:20.060Z,1.80
2023-08-12T22:14:49.797Z,1.58
2023-08-12T22:17:18.763Z,1.65
2023-08-12T22:19:48.837Z,1.50
2023-08-12T22:22:20.118Z,1.35
2023-08-12T22:24:48.978Z,1.40
2023-08-12T22:28:10.690Z,1.40
2023-08-12T22:30:40.496Z,1.45
2023-08-12T22:33:08.985Z,1.42
2023-08-12T22:35:39.227Z,2.22
2023-08-12T22:38:09.165Z,1.08
2023-08-12T22:40:37.801Z,1.50
2023-08-12T22:43:06.524Z,1.52
2023-08-12T22:45:38.442Z,1.60
2023-08-12T22:48:08.785Z,1.35
2023-08-12T22:50:37.747Z,1.52
2023-08-12T22:53:07.752Z,1.92
2023-08-12T22:55:36.031Z,1.42
2023-08-12T22:58:05.079Z,1.10
2023-08-12T23:00:33.445Z,1.88
2023-08-12T23:03:01.833Z,1.20
2023-08-12T23:05:31.605Z,1.23
2023-08-12T23:07:59.914Z,1.27
2023-08-12T23:10:28.180Z,2.00
2023-08-12T23:12:56.433Z,1.20
2023-08-12T23:15:24.786Z,1.58
2023-08-12T23:17:53.075Z,1.60
2023-08-12T23:20:21.692Z,1.65
2023-08-12T23:22:51.448Z,1.33
2023-08-12T23:25:19.796Z,1.50
2023-08-12T23:27:48.171Z,1.55
2023-08-12T23:30:17.011Z,1.33
2023-08-12T23:32:45.421Z,1.52
2023-08-12T23:35:14.409Z,1.73
2023-08-12T23:37:43.031Z,2.10
2023-08-12T23:40:13.895Z,1.23
2023-08-12T23:42:42.919Z,1.30
2023-08-12T23:45:12.991Z,1.98
2023-08-12T23:47:42.534Z,1.40
2023-08-12T23:50:12.795Z,0.95
2023-08-12T23:52:41.196Z,1.67
2023-08-12T23:55:09.857Z,1.33
2023-08-12T23:57:39.772Z,1.40
